sensor_id;sensor_type;location;lat;lon;timestamp;pressure;altitude;pressure_sealevel;temperature;humidity
71424;BME280;59240;51.370;-0.486;2023-04-23T00:01:06;100112.69;;;11.79;82.42
71424;BME280;59240;51.370;-0.486;2023-04-23T00:03:35;100122.28;;;11.79;83.28
71424;BME280;59240;51.370;-0.486;2023-04-23T00:06:07;100113.78;;;11.74;84.53
71424;BME280;59240;51.370;-0.486;2023-04-23T00:08:40;100118.09;;;11.75;83.74
71424;BME280;59240;51.370;-0.486;2023-04-23T00:11:08;100115.41;;;11.76;83.06
71424;BME280;59240;51.370;-0.486;2023-04-23T00:13:35;100083.03;;;11.59;83.35
71424;BME280;59240;51.370;-0.486;2023-04-23T00:16:02;100108.50;;;11.75;83.12
71424;BME280;59240;51.370;-0.486;2023-04-23T00:18:29;100060.81;;;11.48;83.66
71424;BME280;59240;51.370;-0.486;2023-04-23T00:20:55;100091.31;;;11.70;83.49
71424;BME280;59240;51.370;-0.486;2023-04-23T00:23:22;100112.56;;;11.84;83.04
71424;BME280;59240;51.370;-0.486;2023-04-23T00:25:49;100103.09;;;11.80;83.40
71424;BME280;59240;51.370;-0.486;2023-04-23T00:28:15;100096.91;;;11.84;83.04
71424;BME280;59240;51.370;-0.486;2023-04-23T00:30:42;100108.03;;;11.89;82.87
71424;BME280;59240;51.370;-0.486;2023-04-23T00:33:09;100081.38;;;11.79;83.07
71424;BME280;59240;51.370;-0.486;2023-04-23T00:35:35;100080.47;;;11.82;83.40
71424;BME280;59240;51.370;-0.486;2023-04-23T00:38:02;100053.19;;;11.66;82.90
71424;BME280;59240;51.370;-0.486;2023-04-23T00:40:29;100081.38;;;11.79;83.26
71424;BME280;59240;51.370;-0.486;2023-04-23T00:42:56;100090.75;;;11.85;83.36
71424;BME280;59240;51.370;-0.486;2023-04-23T00:45:23;100053.19;;;11.66;83.34
71424;BME280;59240;51.370;-0.486;2023-04-23T00:47:50;100067.34;;;11.84;83.45
71424;BME280;59240;51.370;-0.486;2023-04-23T00:50:16;100071.72;;;11.83;83.85
71424;BME280;59240;51.370;-0.486;2023-04-23T00:52:43;100066.56;;;11.80;83.37
71424;BME280;59240;51.370;-0.486;2023-04-23T00:55:10;100052.88;;;11.75;82.89
71424;BME280;59240;51.370;-0.486;2023-04-23T00:57:37;100061.28;;;11.83;83.17
71424;BME280;59240;51.370;-0.486;2023-04-23T01:00:05;100074.78;;;11.94;82.99
71424;BME280;59240;51.370;-0.486;2023-04-23T01:02:34;100082.53;;;11.96;83.10
71424;BME280;59240;51.370;-0.486;2023-04-23T01:05:03;100069.72;;;11.90;82.88
71424;BME280;59240;51.370;-0.486;2023-04-23T01:07:31;100044.06;;;11.77;82.81
71424;BME280;59240;51.370;-0.486;2023-04-23T01:09:59;100055.22;;;11.83;83.18
71424;BME280;59240;51.370;-0.486;2023-04-23T01:12:26;100067.97;;;11.90;82.67
71424;BME280;59240;51.370;-0.486;2023-04-23T01:14:53;100073.19;;;11.90;83.24
71424;BME280;59240;51.370;-0.486;2023-04-23T01:17:20;100049.22;;;11.79;83.02
71424;BME280;59240;51.370;-0.486;2023-04-23T01:19:47;100057.94;;;11.78;82.96
71424;BME280;59240;51.370;-0.486;2023-04-23T01:22:14;100041.63;;;11.73;82.79
71424;BME280;59240;51.370;-0.486;2023-04-23T01:24:41;100036.53;;;11.70;82.55
71424;BME280;59240;51.370;-0.486;2023-04-23T01:27:09;100072.19;;;11.93;82.48
71424;BME280;59240;51.370;-0.486;2023-04-23T01:29:38;100061.13;;;11.86;81.96
71424;BME280;59240;51.370;-0.486;2023-04-23T01:32:06;100058.19;;;11.95;81.93
71424;BME280;59240;51.370;-0.486;2023-04-23T01:34:33;100057.28;;;11.96;81.72
71424;BME280;59240;51.370;-0.486;2023-04-23T01:37:02;100023.25;;;11.76;81.73
71424;BME280;59240;51.370;-0.486;2023-04-23T01:39:29;100007.59;;;11.76;81.37
71424;BME280;59240;51.370;-0.486;2023-04-23T01:41:57;100029.03;;;11.84;81.68
71424;BME280;59240;51.370;-0.486;2023-04-23T01:44:23;100035.66;;;11.93;81.32
71424;BME280;59240;51.370;-0.486;2023-04-23T01:46:50;100045.00;;;11.98;81.43
71424;BME280;59240;51.370;-0.486;2023-04-23T01:49:17;100028.75;;;11.92;81.39
71424;BME280;59240;51.370;-0.486;2023-04-23T01:51:43;100009.28;;;11.77;81.86
71424;BME280;59240;51.370;-0.486;2023-04-23T01:54:10;100022.00;;;11.86;82.11
71424;BME280;59240;51.370;-0.486;2023-04-23T01:56:37;100030.56;;;11.90;82.04
71424;BME280;59240;51.370;-0.486;2023-04-23T01:59:03;100010.97;;;11.78;81.73
71424;BME280;59240;51.370;-0.486;2023-04-23T02:01:43;100038.34;;;11.91;82.70
71424;BME280;59240;51.370;-0.486;2023-04-23T02:04:12;100004.53;;;11.65;81.64
71424;BME280;59240;51.370;-0.486;2023-04-23T02:06:41;100025.72;;;11.81;82.48
71424;BME280;59240;51.370;-0.486;2023-04-23T02:09:08;100041.84;;;11.90;82.06
71424;BME280;59240;51.370;-0.486;2023-04-23T02:11:35;100035.97;;;11.85;82.12
71424;BME280;59240;51.370;-0.486;2023-04-23T02:14:02;100042.78;;;11.89;81.30
71424;BME280;59240;51.370;-0.486;2023-04-23T02:16:29;99998.31;;;11.69;81.20
71424;BME280;59240;51.370;-0.486;2023-04-23T02:18:56;100011.13;;;11.75;81.21
71424;BME280;59240;51.370;-0.486;2023-04-23T02:21:24;100021.13;;;11.87;81.65
71424;BME280;59240;51.370;-0.486;2023-04-23T02:23:51;100016.91;;;11.83;80.81
71424;BME280;59240;51.370;-0.486;2023-04-23T02:26:18;100030.66;;;11.87;81.25
71424;BME280;59240;51.370;-0.486;2023-04-23T02:28:45;99989.50;;;11.71;80.50
71424;BME280;59240;51.370;-0.486;2023-04-23T02:31:11;100011.22;;;11.72;80.73
71424;BME280;59240;51.370;-0.486;2023-04-23T02:33:40;100022.19;;;11.82;81.04
71424;BME280;59240;51.370;-0.486;2023-04-23T02:36:08;100030.88;;;11.82;80.72
71424;BME280;59240;51.370;-0.486;2023-04-23T02:38:37;100022.19;;;11.80;80.73
71424;BME280;59240;51.370;-0.486;2023-04-23T02:41:07;100017.88;;;11.79;80.79
71424;BME280;59240;51.370;-0.486;2023-04-23T02:43:34;99990.72;;;11.63;80.58
71424;BME280;59240;51.370;-0.486;2023-04-23T02:46:01;100015.53;;;11.73;81.11
71424;BME280;59240;51.370;-0.486;2023-04-23T02:48:35;100006.22;;;11.66;80.88
71424;BME280;59240;51.370;-0.486;2023-04-23T02:51:02;100014.06;;;11.66;81.25
71424;BME280;59240;51.370;-0.486;2023-04-23T02:53:31;100023.31;;;11.74;81.30
71424;BME280;59240;51.370;-0.486;2023-04-23T02:55:58;100010.81;;;11.61;81.88
71424;BME280;59240;51.370;-0.486;2023-04-23T02:58:25;100019.97;;;11.71;81.33
71424;BME280;59240;51.370;-0.486;2023-04-23T03:00:52;99999.69;;;11.56;82.53
71424;BME280;59240;51.370;-0.486;2023-04-23T03:03:19;100033.78;;;11.73;81.40
71424;BME280;59240;51.370;-0.486;2023-04-23T03:05:46;99999.56;;;11.59;81.35
71424;BME280;59240;51.370;-0.486;2023-04-23T03:08:13;100008.06;;;11.64;81.04
71424;BME280;59240;51.370;-0.486;2023-04-23T03:10:40;100029.19;;;11.79;81.61
71424;BME280;59240;51.370;-0.486;2023-04-23T03:13:06;100015.66;;;11.70;81.33
71424;BME280;59240;51.370;-0.486;2023-04-23T03:15:33;99998.00;;;11.55;81.42
71424;BME280;59240;51.370;-0.486;2023-04-23T03:18:00;99958.66;;;11.37;81.17
71424;BME280;59240;51.370;-0.486;2023-04-23T03:20:27;100038.91;;;11.76;80.84
71424;BME280;59240;51.370;-0.486;2023-04-23T03:22:53;99994.34;;;11.59;81.00
71424;BME280;59240;51.370;-0.486;2023-04-23T03:25:20;100030.28;;;11.74;80.39
71424;BME280;59240;51.370;-0.486;2023-04-23T03:27:48;99984.25;;;11.49;80.60
71424;BME280;59240;51.370;-0.486;2023-04-23T03:30:15;100012.19;;;11.69;80.24
71424;BME280;59240;51.370;-0.486;2023-04-23T03:32:42;99992.88;;;11.51;79.82
71424;BME280;59240;51.370;-0.486;2023-04-23T03:35:08;99991.09;;;11.52;79.50
71424;BME280;59240;51.370;-0.486;2023-04-23T03:37:35;99989.63;;;11.46;79.90
71424;BME280;59240;51.370;-0.486;2023-04-23T03:40:02;99992.03;;;11.51;79.62
71424;BME280;59240;51.370;-0.486;2023-04-23T03:42:33;100021.88;;;11.66;80.56
71424;BME280;59240;51.370;-0.486;2023-04-23T03:45:00;99980.88;;;11.47;80.21
71424;BME280;59240;51.370;-0.486;2023-04-23T03:47:26;99965.63;;;11.37;79.87
71424;BME280;59240;51.370;-0.486;2023-04-23T03:49:53;100018.25;;;11.70;79.78
71424;BME280;59240;51.370;-0.486;2023-04-23T03:52:21;100022.00;;;11.63;79.85
71424;BME280;59240;51.370;-0.486;2023-04-23T03:54:47;99977.59;;;11.42;79.86
71424;BME280;59240;51.370;-0.486;2023-04-23T03:57:14;100017.59;;;11.65;79.36
71424;BME280;59240;51.370;-0.486;2023-04-23T03:59:41;99974.19;;;11.40;79.60
71424;BME280;59240;51.370;-0.486;2023-04-23T04:02:08;100003.06;;;11.58;80.02
71424;BME280;59240;51.370;-0.486;2023-04-23T04:04:35;99982.56;;;11.48;79.30
71424;BME280;59240;51.370;-0.486;2023-04-23T04:07:02;99997.91;;;11.56;79.33
71424;BME280;59240;51.370;-0.486;2023-04-23T04:09:28;100007.28;;;11.62;79.60
71424;BME280;59240;51.370;-0.486;2023-04-23T04:11:55;99982.81;;;11.42;79.43
71424;BME280;59240;51.370;-0.486;2023-04-23T04:14:22;100024.41;;;11.69;79.78
71424;BME280;59240;51.370;-0.486;2023-04-23T04:16:49;100022.00;;;11.63;79.73
71424;BME280;59240;51.370;-0.486;2023-04-23T04:19:15;99994.69;;;11.49;79.75
71424;BME280;59240;51.370;-0.486;2023-04-23T04:21:42;99970.06;;;11.35;79.51
71424;BME280;59240;51.370;-0.486;2023-04-23T04:24:08;100027.91;;;11.68;79.34
71424;BME280;59240;51.370;-0.486;2023-04-23T04:26:36;99988.56;;;11.50;79.34
71424;BME280;59240;51.370;-0.486;2023-04-23T04:29:03;99984.50;;;11.43;79.28
71424;BME280;59240;51.370;-0.486;2023-04-23T04:31:30;99957.97;;;11.32;79.66
71424;BME280;59240;51.370;-0.486;2023-04-23T04:33:57;99991.25;;;11.49;79.02
71424;BME280;59240;51.370;-0.486;2023-04-23T04:36:24;99983.47;;;11.47;78.40
71424;BME280;59240;51.370;-0.486;2023-04-23T04:38:52;99985.19;;;11.48;78.79
71424;BME280;59240;51.370;-0.486;2023-04-23T04:41:21;99985.34;;;11.44;78.98
71424;BME280;59240;51.370;-0.486;2023-04-23T04:43:51;99985.47;;;11.41;78.65
71424;BME280;59240;51.370;-0.486;2023-04-23T04:46:17;100015.34;;;11.56;78.20
71424;BME280;59240;51.370;-0.486;2023-04-23T04:48:47;99979.50;;;11.37;78.17
71424;BME280;59240;51.370;-0.486;2023-04-23T04:51:14;99966.06;;;11.26;78.08
71424;BME280;59240;51.370;-0.486;2023-04-23T04:53:41;99988.88;;;11.43;78.47
71424;BME280;59240;51.370;-0.486;2023-04-23T04:56:07;99998.59;;;11.39;78.15
71424;BME280;59240;51.370;-0.486;2023-04-23T04:58:34;99991.88;;;11.32;78.14
71424;BME280;59240;51.370;-0.486;2023-04-23T05:01:01;99967.84;;;11.24;78.17
71424;BME280;59240;51.370;-0.486;2023-04-23T05:03:28;100001.97;;;11.41;78.10
71424;BME280;59240;51.370;-0.486;2023-04-23T05:05:55;100003.97;;;11.35;77.55
71424;BME280;59240;51.370;-0.486;2023-04-23T05:08:21;99969.19;;;11.12;77.85
71424;BME280;59240;51.370;-0.486;2023-04-23T05:10:48;99963.22;;;11.09;77.91
71424;BME280;59240;51.370;-0.486;2023-04-23T05:13:16;99974.38;;;11.12;78.39
71424;BME280;59240;51.370;-0.486;2023-04-23T05:15:42;99946.25;;;10.97;78.27
71424;BME280;59240;51.370;-0.486;2023-04-23T05:18:11;99979.34;;;11.18;77.62
71424;BME280;59240;51.370;-0.486;2023-04-23T05:20:37;99992.00;;;11.29;77.47
71424;BME280;59240;51.370;-0.486;2023-04-23T05:23:04;99981.00;;;11.21;78.26
71424;BME280;59240;51.370;-0.486;2023-04-23T05:25:31;99987.00;;;11.23;78.24
71424;BME280;59240;51.370;-0.486;2023-04-23T05:27:59;100002.19;;;11.35;77.72
71424;BME280;59240;51.370;-0.486;2023-04-23T05:30:27;99977.41;;;11.23;77.80
71424;BME280;59240;51.370;-0.486;2023-04-23T05:32:54;99956.06;;;11.14;78.12
71424;BME280;59240;51.370;-0.486;2023-04-23T05:35:21;100000.59;;;11.31;77.42
71424;BME280;59240;51.370;-0.486;2023-04-23T05:37:48;99998.91;;;11.30;78.15
71424;BME280;59240;51.370;-0.486;2023-04-23T05:40:14;100004.13;;;11.30;78.11
71424;BME280;59240;51.370;-0.486;2023-04-23T05:42:41;99976.94;;;11.14;77.96
71424;BME280;59240;51.370;-0.486;2023-04-23T05:45:08;100005.94;;;11.28;77.59
71424;BME280;59240;51.370;-0.486;2023-04-23T05:47:35;99990.66;;;11.19;77.63
71424;BME280;59240;51.370;-0.486;2023-04-23T05:50:02;99967.63;;;11.07;77.91
71424;BME280;59240;51.370;-0.486;2023-04-23T05:52:30;99999.03;;;11.27;78.25
71424;BME280;59240;51.370;-0.486;2023-04-23T05:54:58;99980.31;;;11.16;77.79
71424;BME280;59240;51.370;-0.486;2023-04-23T05:57:25;99999.09;;;11.26;78.37
71424;BME280;59240;51.370;-0.486;2023-04-23T05:59:52;100013.34;;;11.39;77.89
71424;BME280;59240;51.370;-0.486;2023-04-23T06:02:18;100004.75;;;11.37;78.33
71424;BME280;59240;51.370;-0.486;2023-04-23T06:04:50;99970.50;;;11.22;78.32
71424;BME280;59240;51.370;-0.486;2023-04-23T06:07:17;100006.03;;;11.48;77.94
71424;BME280;59240;51.370;-0.486;2023-04-23T06:09:44;99955.72;;;11.23;77.11
71424;BME280;59240;51.370;-0.486;2023-04-23T06:12:11;100010.91;;;11.58;77.57
71424;BME280;59240;51.370;-0.486;2023-04-23T06:14:37;99959.72;;;11.32;77.56
71424;BME280;59240;51.370;-0.486;2023-04-23T06:17:04;99963.09;;;11.35;77.96
71424;BME280;59240;51.370;-0.486;2023-04-23T06:19:31;99995.47;;;11.51;77.73
71424;BME280;59240;51.370;-0.486;2023-04-23T06:21:58;99988.69;;;11.47;77.50
71424;BME280;59240;51.370;-0.486;2023-04-23T06:24:25;99991.72;;;11.59;77.37
71424;BME280;59240;51.370;-0.486;2023-04-23T06:26:52;99987.50;;;11.56;77.84
71424;BME280;59240;51.370;-0.486;2023-04-23T06:29:18;100007.69;;;11.73;77.90
71424;BME280;59240;51.370;-0.486;2023-04-23T06:31:45;99988.88;;;11.65;77.16
71424;BME280;59240;51.370;-0.486;2023-04-23T06:34:11;100006.78;;;11.97;77.57
71424;BME280;59240;51.370;-0.486;2023-04-23T06:36:38;99989.16;;;12.02;76.80
71424;BME280;59240;51.370;-0.486;2023-04-23T06:39:05;99998.22;;;12.16;76.66
71424;BME280;59240;51.370;-0.486;2023-04-23T06:41:31;99995.44;;;12.19;76.65
71424;BME280;59240;51.370;-0.486;2023-04-23T06:44:02;99961.09;;;12.08;76.28
71424;BME280;59240;51.370;-0.486;2023-04-23T06:46:29;99962.28;;;12.21;75.80
71424;BME280;59240;51.370;-0.486;2023-04-23T06:48:55;99932.69;;;12.00;76.13
71424;BME280;59240;51.370;-0.486;2023-04-23T06:51:25;99970.69;;;12.29;74.34
71424;BME280;59240;51.370;-0.486;2023-04-23T06:53:54;99934.97;;;12.08;75.25
71424;BME280;59240;51.370;-0.486;2023-04-23T06:56:20;99968.09;;;12.27;75.64
71424;BME280;59240;51.370;-0.486;2023-04-23T06:58:48;99951.47;;;12.30;75.41
71424;BME280;59240;51.370;-0.486;2023-04-23T07:01:15;99987.72;;;12.58;75.06
71424;BME280;59240;51.370;-0.486;2023-04-23T07:03:42;99984.19;;;12.59;75.40
71424;BME280;59240;51.370;-0.486;2023-04-23T07:06:11;99962.69;;;12.52;74.47
71424;BME280;59240;51.370;-0.486;2023-04-23T07:08:38;99996.81;;;12.70;74.62
71424;BME280;59240;51.370;-0.486;2023-04-23T07:11:05;99955.13;;;12.46;71.87
71424;BME280;59240;51.370;-0.486;2023-04-23T07:13:34;99906.00;;;12.14;73.76
71424;BME280;59240;51.370;-0.486;2023-04-23T07:16:01;99997.06;;;12.64;73.93
71424;BME280;59240;51.370;-0.486;2023-04-23T07:18:28;99907.75;;;12.15;73.43
71424;BME280;59240;51.370;-0.486;2023-04-23T07:20:58;99919.16;;;12.32;73.87
71424;BME280;59240;51.370;-0.486;2023-04-23T07:23:24;99972.38;;;12.71;74.60
71424;BME280;59240;51.370;-0.486;2023-04-23T07:25:51;99962.88;;;12.68;73.64
71424;BME280;59240;51.370;-0.486;2023-04-23T07:28:17;99961.75;;;12.74;74.23
71424;BME280;59240;51.370;-0.486;2023-04-23T07:30:44;99983.84;;;12.87;73.25
71424;BME280;59240;51.370;-0.486;2023-04-23T07:33:11;99975.22;;;12.85;72.84
71424;BME280;59240;51.370;-0.486;2023-04-23T07:35:37;99978.75;;;12.84;72.56
71424;BME280;59240;51.370;-0.486;2023-04-23T07:38:04;99987.22;;;12.89;73.58
71424;BME280;59240;51.370;-0.486;2023-04-23T07:40:31;99976.91;;;12.86;73.07
71424;BME280;59240;51.370;-0.486;2023-04-23T07:42:57;100003.78;;;13.08;73.26
71424;BME280;59240;51.370;-0.486;2023-04-23T07:45:24;99986.56;;;13.04;72.90
71424;BME280;59240;51.370;-0.486;2023-04-23T07:47:52;100003.28;;;13.21;73.53
71424;BME280;59240;51.370;-0.486;2023-04-23T07:50:19;99999.97;;;13.15;72.64
71424;BME280;59240;51.370;-0.486;2023-04-23T07:52:46;99973.41;;;13.06;72.83
71424;BME280;59240;51.370;-0.486;2023-04-23T07:55:12;99960.81;;;12.95;72.86
71424;BME280;59240;51.370;-0.486;2023-04-23T07:57:39;100006.66;;;13.23;71.98
71424;BME280;59240;51.370;-0.486;2023-04-23T08:00:06;99968.53;;;12.98;71.53
71424;BME280;59240;51.370;-0.486;2023-04-23T08:02:36;99957.53;;;12.90;71.67
71424;BME280;59240;51.370;-0.486;2023-04-23T08:05:04;99992.56;;;13.06;71.53
71424;BME280;59240;51.370;-0.486;2023-04-23T08:07:32;99941.63;;;12.76;71.05
71424;BME280;59240;51.370;-0.486;2023-04-23T08:09:59;99960.66;;;12.79;70.89
71424;BME280;59240;51.370;-0.486;2023-04-23T08:12:29;99974.22;;;12.87;71.27
71424;BME280;59240;51.370;-0.486;2023-04-23T08:14:56;99961.34;;;12.83;70.95
71424;BME280;59240;51.370;-0.486;2023-04-23T08:17:26;99954.44;;;12.82;70.96
71424;BME280;59240;51.370;-0.486;2023-04-23T08:19:56;99986.41;;;13.07;70.99
71424;BME280;59240;51.370;-0.486;2023-04-23T08:22:23;99941.09;;;12.88;70.82
71424;BME280;59240;51.370;-0.486;2023-04-23T08:24:50;99918.41;;;12.70;70.56
71424;BME280;59240;51.370;-0.486;2023-04-23T08:27:16;99971.72;;;13.05;71.75
71424;BME280;59240;51.370;-0.486;2023-04-23T08:29:43;99974.25;;;13.06;72.21
71424;BME280;59240;51.370;-0.486;2023-04-23T08:32:10;99943.50;;;12.93;71.49
71424;BME280;59240;51.370;-0.486;2023-04-23T08:34:37;99973.84;;;13.15;71.12
71424;BME280;59240;51.370;-0.486;2023-04-23T08:37:05;99972.75;;;13.21;71.38
71424;BME280;59240;51.370;-0.486;2023-04-23T08:39:37;99968.84;;;13.11;71.32
71424;BME280;59240;51.370;-0.486;2023-04-23T08:42:14;99994.09;;;13.31;72.35
71424;BME280;59240;51.370;-0.486;2023-04-23T08:44:45;99977.63;;;13.29;72.35
71424;BME280;59240;51.370;-0.486;2023-04-23T08:47:15;99976.69;;;13.30;71.92
71424;BME280;59240;51.370;-0.486;2023-04-23T08:49:44;99983.28;;;13.38;71.93
71424;BME280;59240;51.370;-0.486;2023-04-23T08:52:16;99979.81;;;13.38;71.34
71424;BME280;59240;51.370;-0.486;2023-04-23T08:54:49;99973.16;;;13.31;72.05
71424;BME280;59240;51.370;-0.486;2023-04-23T08:57:16;99986.31;;;13.29;72.12
71424;BME280;59240;51.370;-0.486;2023-04-23T08:59:44;99969.59;;;13.13;72.00
71424;BME280;59240;51.370;-0.486;2023-04-23T09:02:13;99930.78;;;12.85;71.72
71424;BME280;59240;51.370;-0.486;2023-04-23T09:04:41;99992.81;;;13.21;72.15
71424;BME280;59240;51.370;-0.486;2023-04-23T09:07:08;99961.38;;;13.02;72.50
71424;BME280;59240;51.370;-0.486;2023-04-23T09:09:38;99948.09;;;12.87;72.40
71424;BME280;59240;51.370;-0.486;2023-04-23T09:12:07;99958.34;;;12.92;73.16
71424;BME280;59240;51.370;-0.486;2023-04-23T09:14:35;99981.34;;;13.04;72.95
71424;BME280;59240;51.370;-0.486;2023-04-23T09:17:02;99927.00;;;12.72;73.16
71424;BME280;59240;51.370;-0.486;2023-04-23T09:19:29;99936.19;;;12.80;73.80
71424;BME280;59240;51.370;-0.486;2023-04-23T09:21:57;99917.88;;;12.62;73.05
71424;BME280;59240;51.370;-0.486;2023-04-23T09:24:24;99937.47;;;12.72;74.23
71424;BME280;59240;51.370;-0.486;2023-04-23T09:26:51;99983.28;;;12.99;74.45
71424;BME280;59240;51.370;-0.486;2023-04-23T09:29:22;99978.19;;;12.96;74.55
71424;BME280;59240;51.370;-0.486;2023-04-23T09:31:51;99966.53;;;12.84;74.44
71424;BME280;59240;51.370;-0.486;2023-04-23T09:34:19;99924.00;;;12.60;75.08
71424;BME280;59240;51.370;-0.486;2023-04-23T09:36:48;99942.63;;;12.73;74.95
71424;BME280;59240;51.370;-0.486;2023-04-23T09:39:18;99971.16;;;12.98;75.10
71424;BME280;59240;51.370;-0.486;2023-04-23T09:41:45;99961.59;;;12.97;75.26
71424;BME280;59240;51.370;-0.486;2023-04-23T09:44:21;99931.81;;;12.81;76.65
71424;BME280;59240;51.370;-0.486;2023-04-23T09:46:50;99963.88;;;13.05;76.01
71424;BME280;59240;51.370;-0.486;2023-04-23T09:49:17;99949.22;;;13.01;75.57
71424;BME280;59240;51.370;-0.486;2023-04-23T09:51:47;99892.41;;;12.67;75.94
71424;BME280;59240;51.370;-0.486;2023-04-23T09:54:19;99954.47;;;13.01;76.75
71424;BME280;59240;51.370;-0.486;2023-04-23T09:56:51;99910.78;;;12.84;76.03
71424;BME280;59240;51.370;-0.486;2023-04-23T09:59:24;99951.50;;;13.08;76.57
71424;BME280;59240;51.370;-0.486;2023-04-23T10:02:12;99929.03;;;13.04;76.15
71424;BME280;59240;51.370;-0.486;2023-04-23T10:04:39;99954.47;;;13.20;75.26
71424;BME280;59240;51.370;-0.486;2023-04-23T10:07:10;99930.72;;;13.05;76.46
71424;BME280;59240;51.370;-0.486;2023-04-23T10:09:42;99939.34;;;13.07;75.31
71424;BME280;59240;51.370;-0.486;2023-04-23T10:12:10;99957.91;;;13.22;76.18
71424;BME280;59240;51.370;-0.486;2023-04-23T10:14:57;99923.81;;;13.04;76.11
71424;BME280;59240;51.370;-0.486;2023-04-23T10:17:25;99890.38;;;12.92;76.17
71424;BME280;59240;51.370;-0.486;2023-04-23T10:19:53;99894.25;;;13.02;76.38
71424;BME280;59240;51.370;-0.486;2023-04-23T10:22:24;99870.31;;;12.93;75.30
71424;BME280;59240;51.370;-0.486;2023-04-23T10:24:55;99927.78;;;13.32;76.06
71424;BME280;59240;51.370;-0.486;2023-04-23T10:27:32;99842.53;;;12.90;75.77
71424;BME280;59240;51.370;-0.486;2023-04-23T10:30:18;99841.63;;;12.91;75.83
71424;BME280;59240;51.370;-0.486;2023-04-23T10:32:47;99830.38;;;12.89;75.43
71424;BME280;59240;51.370;-0.486;2023-04-23T10:35:17;99931.44;;;13.47;74.79
71424;BME280;59240;51.370;-0.486;2023-04-23T10:37:45;99836.31;;;12.93;75.12
71424;BME280;59240;51.370;-0.486;2023-04-23T10:40:19;99861.38;;;13.15;75.76
71424;BME280;59240;51.370;-0.486;2023-04-23T10:42:49;99867.63;;;13.32;75.61
71424;BME280;59240;51.370;-0.486;2023-04-23T10:45:17;99907.09;;;13.63;75.38
71424;BME280;59240;51.370;-0.486;2023-04-23T10:47:52;99939.13;;;13.86;75.38
71424;BME280;59240;51.370;-0.486;2023-04-23T10:50:27;99938.00;;;13.91;74.18
71424;BME280;59240;51.370;-0.486;2023-04-23T10:52:55;99882.59;;;13.64;75.20
71424;BME280;59240;51.370;-0.486;2023-04-23T10:55:30;99838.41;;;13.41;74.09
71424;BME280;59240;51.370;-0.486;2023-04-23T10:58:05;99892.41;;;13.78;74.53
71424;BME280;59240;51.370;-0.486;2023-04-23T11:00:53;99932.16;;;14.04;75.70
71424;BME280;59240;51.370;-0.486;2023-04-23T11:06:05;99892.19;;;13.83;75.12
71424;BME280;59240;51.370;-0.486;2023-04-23T11:08:34;99900.78;;;13.85;72.62
71424;BME280;59240;51.370;-0.486;2023-04-23T11:11:06;99851.81;;;13.52;72.89
71424;BME280;59240;51.370;-0.486;2023-04-23T11:13:35;99898.63;;;13.76;73.49
71424;BME280;59240;51.370;-0.486;2023-04-23T11:16:20;99935.00;;;13.99;73.89
71424;BME280;59240;51.370;-0.486;2023-04-23T11:19:02;99896.88;;;13.76;73.83
71424;BME280;59240;51.370;-0.486;2023-04-23T11:24:30;99918.06;;;13.89;73.53
71424;BME280;59240;51.370;-0.486;2023-04-23T11:26:57;99901.34;;;13.74;72.65
71424;BME280;59240;51.370;-0.486;2023-04-23T11:29:25;99906.19;;;13.82;72.62
71424;BME280;59240;51.370;-0.486;2023-04-23T11:31:56;99870.72;;;13.57;72.63
71424;BME280;59240;51.370;-0.486;2023-04-23T11:34:29;99919.19;;;13.83;72.28
71424;BME280;59240;51.370;-0.486;2023-04-23T11:36:58;99894.75;;;13.65;72.47
71424;BME280;59240;51.370;-0.486;2023-04-23T11:39:25;99934.78;;;13.86;72.63
71424;BME280;59240;51.370;-0.486;2023-04-23T11:41:53;99914.63;;;13.69;72.53
71424;BME280;59240;51.370;-0.486;2023-04-23T11:44:20;99886.44;;;13.57;72.30
71424;BME280;59240;51.370;-0.486;2023-04-23T11:46:49;99927.91;;;13.84;71.87
71424;BME280;59240;51.370;-0.486;2023-04-23T11:49:17;99879.38;;;13.59;72.68
71424;BME280;59240;51.370;-0.486;2023-04-23T11:51:45;99904.41;;;13.82;72.46
71424;BME280;59240;51.370;-0.486;2023-04-23T11:54:13;99902.72;;;13.81;71.54
71424;BME280;59240;51.370;-0.486;2023-04-23T11:56:40;99888.09;;;13.77;71.58
71424;BME280;59240;51.370;-0.486;2023-04-23T11:59:10;99889.56;;;13.83;72.07
71424;BME280;59240;51.370;-0.486;2023-04-23T12:01:45;99902.03;;;13.95;73.14
71424;BME280;59240;51.370;-0.486;2023-04-23T12:04:25;99887.19;;;13.95;72.54
71424;BME280;59240;51.370;-0.486;2023-04-23T12:06:56;99886.63;;;14.06;71.72
71424;BME280;59240;51.370;-0.486;2023-04-23T12:09:46;99825.19;;;13.79;72.10
71424;BME280;59240;51.370;-0.486;2023-04-23T12:12:23;99885.78;;;14.23;68.80
71424;BME280;59240;51.370;-0.486;2023-04-23T12:15:06;99911.91;;;14.42;70.95
71424;BME280;59240;51.370;-0.486;2023-04-23T12:17:33;99899.00;;;14.37;71.88
71424;BME280;59240;51.370;-0.486;2023-04-23T12:20:09;99915.97;;;14.47;71.32
71424;BME280;59240;51.370;-0.486;2023-04-23T12:22:37;99898.19;;;14.37;71.94
71424;BME280;59240;51.370;-0.486;2023-04-23T12:25:04;99912.78;;;14.41;71.42
71424;BME280;59240;51.370;-0.486;2023-04-23T12:27:38;99876.16;;;14.23;71.29
71424;BME280;59240;51.370;-0.486;2023-04-23T12:30:08;99920.38;;;14.47;71.64
71424;BME280;59240;51.370;-0.486;2023-04-23T12:32:42;99895.56;;;14.19;71.33
71424;BME280;59240;51.370;-0.486;2023-04-23T12:35:09;99888.41;;;14.06;70.99
71424;BME280;59240;51.370;-0.486;2023-04-23T12:37:36;99921.00;;;14.17;71.08
71424;BME280;59240;51.370;-0.486;2023-04-23T12:40:03;99921.22;;;14.13;71.26
71424;BME280;59240;51.370;-0.486;2023-04-23T12:42:32;99892.09;;;13.84;71.96
71424;BME280;59240;51.370;-0.486;2023-04-23T12:45:10;99896.03;;;13.76;71.90
71424;BME280;59240;51.370;-0.486;2023-04-23T12:47:37;99891.53;;;13.60;72.03
71424;BME280;59240;51.370;-0.486;2023-04-23T12:50:07;99851.13;;;13.30;72.45
71424;BME280;59240;51.370;-0.486;2023-04-23T12:52:58;99914.09;;;13.63;71.69
71424;BME280;59240;51.370;-0.486;2023-04-23T12:55:27;99899.34;;;13.43;72.39
71424;BME280;59240;51.370;-0.486;2023-04-23T12:58:02;99835.19;;;12.98;72.14
71424;BME280;59240;51.370;-0.486;2023-04-23T13:00:43;99871.06;;;13.13;72.55